Parnassus, Pennsylvania
Current Conditions -  °F | °C
As of 3:53 AM on Sunday 23 Nov 2014 (Local Time) from KAGC Reporting Station
Overcast Overcast  
Wind Chill:   Ceiling: 5500
Heat Index:   Visibility: 10mi
Dew Point: -4°   Wind: 6mph
Humidity: 41%   Direction: 170°S
Pressure: 30.09"   Gusts: NA
Location:  40.5657°N, 79.707°W
Report Text: KAGC 230853Z AUTO 17005KT 10SM SCT043 BKN055 OVC100 08/M04 A3009 RMK AO2 SLP199 60000 T00831044 57001 TSNO
Loading
Personal Weather Stations






























Interactive Weather Map New forecast layout! Learn more

10-Day Weather Forecast

Advertisements
Track Severe Weather on mobile